Time;durP1;ratioP1;P1;durP2;ratioP2;P2;SDS_P1;SDS_P2;PMS_P1;PMS_P2;Temp;Humidity;BMP_temperature;BMP_pressure;BME280_temperature;BME280_humidity;BME280_pressure;Samples;Min_cycle;Max_cycle;Signal;HPM_P1;HPM_P2
2023/09/20 00:00:52;;;;;;;1.60;1.27;;;15.10;99.90;;;16.01;100.00;97913.38;5046981;28;20455;-80
2023/09/20 00:03:25;;;;;;;2.80;1.70;;;15.10;99.90;;;15.98;100.00;97913.84;5044515;28;20493;-80
2023/09/20 00:05:56;;;;;;;2.40;1.30;;;15.20;99.90;;;15.96;100.00;97915.09;5045276;28;20865;-80
2023/09/20 00:08:25;;;;;;;6.40;1.73;;;15.10;99.90;;;16.01;100.00;97921.28;5041767;28;20551;-80
2023/09/20 00:10:56;;;;;;;6.10;1.93;;;15.00;99.90;;;15.98;100.00;97919.13;5044506;28;20466;-81
2023/09/20 00:13:26;;;;;;;4.20;1.70;;;15.10;99.90;;;15.99;100.00;97909.38;5042882;28;20456;-80
2023/09/20 00:15:56;;;;;;;3.80;1.60;;;15.20;99.90;;;15.99;100.00;97912.81;5043568;28;20457;-80
2023/09/20 00:18:26;;;;;;;4.70;1.77;;;15.10;99.90;;;16.04;100.00;97899.75;5044990;28;20892;-80
2023/09/20 00:21:01;;;;;;;8.80;1.90;;;15.10;99.90;;;16.01;100.00;97904.66;5044968;28;20461;-80
2023/09/20 00:23:30;;;;;;;2.87;1.60;;;15.20;99.90;;;15.97;100.00;97895.59;5043313;28;20566;-80
2023/09/20 00:26:01;;;;;;;12.13;1.63;;;15.10;99.90;;;15.96;100.00;97894.00;5045214;28;20492;-80
2023/09/20 00:28:32;;;;;;;2.40;1.30;;;15.10;99.90;;;15.94;100.00;97898.66;5047567;28;20512;-80
2023/09/20 00:31:03;;;;;;;1.97;1.40;;;15.00;99.90;;;15.89;100.00;97893.28;5043546;28;20461;-80
2023/09/20 00:33:35;;;;;;;2.17;1.67;;;15.10;99.90;;;15.84;100.00;97896.59;5043789;28;21157;-81
2023/09/20 00:36:07;;;;;;;2.90;1.70;;;15.00;99.90;;;15.82;100.00;97893.38;5044447;28;20468;-80
2023/09/20 00:38:36;;;;;;;2.93;1.63;;;15.00;99.90;;;15.79;100.00;97887.75;5045440;28;20469;-80
2023/09/20 00:41:07;;;;;;;3.33;1.70;;;15.00;99.90;;;15.78;100.00;97884.31;5044923;28;20484;-80
2023/09/20 00:43:38;;;;;;;3.40;1.60;;;15.00;99.90;;;15.76;100.00;97883.69;5043193;28;20501;-80
2023/09/20 00:46:09;;;;;;;1.37;1.27;;;15.00;99.90;;;15.76;100.00;97878.44;5042553;28;20511;-80
2023/09/20 00:48:40;;;;;;;3.53;1.90;;;15.00;99.90;;;15.79;100.00;97882.47;5046786;28;20826;-80
2023/09/20 00:51:11;;;;;;;2.03;1.50;;;14.90;99.90;;;15.78;100.00;97881.66;5045889;28;20464;-80
2023/09/20 00:53:41;;;;;;;4.20;1.37;;;15.00;99.90;;;15.75;100.00;97884.75;5044336;28;20465;-80
2023/09/20 00:56:12;;;;;;;8.97;1.90;;;14.90;99.90;;;15.79;100.00;97882.47;5040330;28;21135;-80
2023/09/20 00:58:45;;;;;;;2.87;1.97;;;14.90;99.90;;;15.83;100.00;97875.69;5045579;28;20491;-80
2023/09/20 01:01:16;;;;;;;3.03;1.70;;;14.90;99.90;;;15.84;100.00;97877.31;5043289;28;21254;-80
2023/09/20 01:03:47;;;;;;;3.23;1.50;;;14.80;99.90;;;15.83;100.00;97865.16;5045809;28;20852;-80
2023/09/20 01:06:19;;;;;;;2.80;1.43;;;14.90;99.90;;;15.83;100.00;97862.50;5048163;28;20465;-80
2023/09/20 01:08:50;;;;;;;6.47;1.80;;;14.90;99.90;;;15.84;100.00;97866.78;5046101;28;20461;-80
2023/09/20 01:11:18;;;;;;;4.40;1.80;;;14.90;99.90;;;15.84;100.00;97877.31;5047458;28;20473;-80
2023/09/20 01:13:49;;;;;;;7.50;1.37;;;14.90;99.90;;;15.84;100.00;97872.84;5042980;28;21046;-80
2023/09/20 01:16:18;;;;;;;2.73;1.70;;;14.80;99.90;;;15.80;100.00;97878.78;5045443;28;20888;-81
2023/09/20 01:18:49;;;;;;;3.53;1.47;;;14.90;99.90;;;15.74;100.00;97871.78;5047419;28;20536;-80
2023/09/20 01:21:18;;;;;;;2.30;1.60;;;14.80;99.90;;;15.72;100.00;97881.75;5049105;28;20461;-80
2023/09/20 01:23:51;;;;;;;8.13;2.73;;;14.90;99.90;;;15.70;100.00;97881.16;5047590;28;20480;-80
2023/09/20 01:26:22;;;;;;;5.10;1.40;;;14.80;99.90;;;15.71;100.00;97866.97;5047504;28;20457;-80
2023/09/20 01:28:52;;;;;;;2.70;1.70;;;14.80;99.90;;;15.70;100.00;97867.97;5049080;28;20472;-80
2023/09/20 01:31:22;;;;;;;2.50;1.47;;;14.80;99.90;;;15.71;100.00;97859.06;5045194;28;20476;-80
2023/09/20 01:33:52;;;;;;;10.20;1.70;;;14.80;99.90;;;15.72;100.00;97855.41;5050044;28;20464;-80
2023/09/20 01:36:22;;;;;;;4.40;1.93;;;14.90;99.90;;;15.74;100.00;97851.50;5045950;28;20486;-80
2023/09/20 01:38:54;;;;;;;3.43;1.53;;;14.90;99.90;;;15.76;100.00;97849.44;5046517;28;20454;-80
2023/09/20 01:41:27;;;;;;;5.83;1.83;;;14.80;99.90;;;15.73;100.00;97846.44;5044710;28;20484;-80
2023/09/20 01:43:57;;;;;;;2.40;1.67;;;14.70;99.90;;;15.64;100.00;97837.25;5047598;28;20497;-80
2023/09/20 01:46:28;;;;;;;5.30;1.83;;;14.80;99.90;;;15.65;100.00;97834.41;5049628;28;20480;-80
2023/09/20 01:48:58;;;;;;;3.70;1.57;;;14.70;99.90;;;15.65;100.00;97833.59;5048384;28;20496;-80
2023/09/20 01:51:29;;;;;;;14.83;1.90;;;14.60;99.90;;;15.67;100.00;97824.41;5046074;28;20460;-80
2023/09/20 01:54:01;;;;;;;3.47;1.83;;;14.60;99.90;;;15.63;100.00;97825.91;5047963;28;20493;-80
2023/09/20 01:56:31;;;;;;;1.70;1.60;;;14.70;99.90;;;15.59;100.00;97830.00;5048029;28;20580;-80
2023/09/20 01:59:05;;;;;;;6.40;1.90;;;14.80;99.90;;;15.66;100.00;97824.63;5047953;28;21165;-80
2023/09/20 02:01:37;;;;;;;8.03;1.80;;;14.70;99.90;;;15.63;100.00;97822.44;5049189;28;20464;-80
2023/09/20 02:04:09;;;;;;;7.53;1.70;;;14.60;99.90;;;15.58;100.00;97823.91;5045383;28;20583;-80
2023/09/20 02:06:40;;;;;;;2.73;1.77;;;14.70;99.90;;;15.63;100.00;97822.44;5049281;28;20551;-80
2023/09/20 02:09:12;;;;;;;4.90;1.83;;;14.70;99.90;;;15.62;100.00;97824.28;5048497;28;20894;-81
2023/09/20 02:11:42;;;;;;;2.03;1.60;;;14.70;99.90;;;15.61;100.00;97825.31;5044632;28;20469;-80
2023/09/20 02:14:13;;;;;;;4.30;1.67;;;14.60;99.90;;;15.58;100.00;97823.91;5044481;28;20877;-79
2023/09/20 02:16:43;;;;;;;11.03;1.87;;;14.70;99.90;;;15.53;100.00;97823.00;5050513;28;20522;-80
2023/09/20 02:19:14;;;;;;;3.97;1.60;;;14.60;99.90;;;15.51;100.00;97819.78;5046801;28;20466;-80
2023/09/20 02:21:44;;;;;;;3.43;1.60;;;14.60;99.90;;;15.50;100.00;97813.72;5045648;28;20534;-80
2023/09/20 02:24:18;;;;;;;5.73;1.60;;;14.60;99.90;;;15.55;100.00;97821.72;5048717;28;20493;-80
2023/09/20 02:26:49;;;;;;;4.00;1.70;;;14.60;99.90;;;15.54;100.00;97812.25;5044077;28;20485;-80
2023/09/20 02:29:22;;;;;;;2.90;1.83;;;14.60;99.90;;;15.54;100.00;97812.25;5045279;28;21054;-80
2023/09/20 02:31:54;;;;;;;2.57;1.80;;;14.50;99.90;;;15.48;100.00;97810.47;5044538;28;20467;-80
2023/09/20 02:34:24;;;;;;;2.40;1.67;;;14.60;99.90;;;15.45;100.00;97813.53;5045763;28;21030;-80
2023/09/20 02:36:57;;;;;;;5.70;1.97;;;14.60;99.90;;;15.46;100.00;97807.25;5044046;28;20468;-80
2023/09/20 02:39:28;;;;;;;2.53;2.10;;;14.50;99.90;;;15.49;100.00;97808.66;5048807;28;20449;-80
2023/09/20 02:41:59;;;;;;;2.80;1.47;;;14.50;99.90;;;15.52;100.00;97809.00;5048107;28;20469;-80
2023/09/20 02:44:28;;;;;;;15.10;1.90;;;14.50;99.90;;;15.52;100.00;97806.38;5047155;28;20485;-80
2023/09/20 02:47:00;;;;;;;3.27;1.70;;;14.50;99.90;;;15.53;100.00;97804.53;5045981;28;21032;-80
2023/09/20 02:49:34;;;;;;;2.77;1.90;;;14.60;99.90;;;15.52;100.00;97798.47;5048044;28;20453;-80
2023/09/20 02:52:07;;;;;;;4.67;1.70;;;14.60;99.90;;;15.50;100.00;97800.53;5044467;28;20471;-80
2023/09/20 02:54:40;;;;;;;9.27;2.00;;;14.50;99.90;;;15.51;100.00;97799.50;5046601;28;20832;-80
2023/09/20 02:57:11;;;;;;;2.97;1.70;;;14.50;99.90;;;15.48;100.00;97799.94;5048993;28;20469;-80
2023/09/20 02:59:41;;;;;;;5.23;1.87;;;14.50;99.90;;;15.46;100.00;97801.16;5046585;28;20449;-80
2023/09/20 03:02:12;;;;;;;4.30;1.93;;;14.50;99.90;;;15.45;100.00;97802.19;5042806;28;20978;-80
2023/09/20 03:04:43;;;;;;;2.93;1.60;;;14.40;99.90;;;15.44;100.00;97801.41;5043966;28;21003;-80
2023/09/20 03:07:13;;;;;;;4.60;1.50;;;14.50;99.90;;;15.41;100.00;97807.09;5048345;28;20548;-80
2023/09/20 03:09:45;;;;;;;4.90;1.60;;;14.60;99.90;;;15.39;100.00;97800.44;5047036;28;20457;-80
2023/09/20 03:12:16;;;;;;;5.17;1.60;;;14.50;99.90;;;15.40;100.00;97804.69;5046237;28;20449;-81
2023/09/20 03:14:46;;;;;;;4.10;2.10;;;14.50;99.90;;;15.43;100.00;97796.34;5045145;28;20993;-80
2023/09/20 03:17:18;;;;;;;4.37;1.93;;;14.50;99.90;;;15.39;100.00;97798.63;5045323;28;20473;-80
2023/09/20 03:19:53;;;;;;;3.20;1.50;;;14.60;99.90;;;15.43;100.00;97794.53;5044626;28;20461;-80
2023/09/20 03:22:23;;;;;;;2.27;1.43;;;14.50;99.90;;;15.42;100.00;97792.91;5048125;28;20487;-81
2023/09/20 03:24:54;;;;;;;6.70;1.63;;;14.50;99.90;;;15.40;100.00;97789.69;5045144;28;20494;-80
2023/09/20 03:27:25;;;;;;;3.07;1.80;;;14.60;99.90;;;15.44;100.00;97785.59;5045250;28;20488;-81
2023/09/20 03:29:56;;;;;;;4.77;2.07;;;14.50;99.90;;;15.45;100.00;97786.38;5046873;28;20458;-80
2023/09/20 03:32:29;;;;;;;4.80;1.70;;;14.60;99.90;;;15.46;100.00;97785.34;5046448;28;20555;-81
2023/09/20 03:34:59;;;;;;;3.33;1.67;;;14.60;99.90;;;15.50;100.00;97779.44;5048509;28;20963;-81
2023/09/20 03:37:32;;;;;;;9.90;1.90;;;14.50;99.90;;;15.44;100.00;97785.59;5045668;28;20466;-80
2023/09/20 03:40:06;;;;;;;8.63;1.70;;;14.50;99.90;;;15.45;100.00;97792.44;5043974;28;21020;-80
2023/09/20 03:42:38;;;;;;;3.20;1.90;;;14.50;99.90;;;15.44;100.00;97793.50;5042732;28;21003;-81
2023/09/20 03:45:10;;;;;;;2.37;1.53;;;14.50;99.90;;;15.41;100.00;97791.28;5047707;28;20503;-80
2023/09/20 03:47:40;;;;;;;6.27;1.67;;;14.50;99.90;;;15.43;100.00;97794.53;5044706;28;20465;-81
2023/09/20 03:50:12;;;;;;;6.93;1.57;;;14.50;99.90;;;15.41;100.00;97791.28;5045756;28;20477;-80
2023/09/20 03:52:42;;;;;;;2.90;1.73;;;14.50;99.90;;;15.42;100.00;97786.81;5046120;28;20462;-80
2023/09/20 03:55:14;;;;;;;1.83;1.60;;;14.50;99.90;;;15.39;100.00;97782.81;5046676;28;20461;-80
2023/09/20 03:57:45;;;;;;;8.50;1.90;;;14.50;99.90;;;15.37;100.00;97787.50;5048827;28;20466;-80
2023/09/20 04:00:17;;;;;;;4.27;1.90;;;14.50;99.90;;;15.39;100.00;97788.09;5046828;28;20461;-80
2023/09/20 04:02:48;;;;;;;5.97;1.63;;;14.40;99.90;;;15.39;100.00;97776.72;5044250;28;20458;-80
2023/09/20 04:05:17;;;;;;;4.40;2.13;;;14.40;99.90;;;15.37;100.00;97779.59;5045380;28;20496;-80
2023/09/20 04:08:08;;;;;;;2.90;1.80;;;14.50;99.90;;;15.31;100.00;97772.56;5043562;28;20530;-80
2023/09/20 04:10:40;;;;;;;3.97;1.60;;;14.50;99.90;;;15.29;100.00;97774.66;5043294;28;20456;-80
2023/09/20 04:13:13;;;;;;;14.47;5.47;;;14.50;99.90;;;15.34;100.00;97779.25;5045914;28;20481;-80
2023/09/20 04:15:42;;;;;;;3.50;2.33;;;14.40;99.90;;;15.31;100.00;97767.31;5041855;28;20461;-81
2023/09/20 04:18:12;;;;;;;2.67;2.10;;;14.50;99.90;;;15.31;100.00;97769.94;5046780;28;20479;-80
2023/09/20 04:20:45;;;;;;;3.43;1.63;;;14.50;99.90;;;15.33;100.00;97761.81;5043294;28;20506;-80
2023/09/20 04:23:16;;;;;;;8.73;1.77;;;14.50;99.90;;;15.34;100.00;97758.94;5043977;28;20465;-79
2023/09/20 04:25:47;;;;;;;6.13;3.10;;;14.40;99.90;;;15.30;100.00;97752.56;5042533;28;21146;-80
2023/09/20 04:28:17;;;;;;;11.13;2.27;;;14.60;99.90;;;15.34;100.00;97752.91;5046250;28;20971;-80
2023/09/20 04:30:48;;;;;;;5.13;2.37;;;14.50;99.90;;;15.34;100.00;97748.41;5044962;28;21190;-82
2023/09/20 04:33:17;;;;;;;4.70;1.80;;;14.50;99.90;;;15.34;100.00;97751.03;5042027;28;20462;-81
2023/09/20 04:35:47;;;;;;;14.77;2.67;;;14.50;99.90;;;15.39;100.00;97753.03;5044008;28;20551;-80
2023/09/20 04:38:17;;;;;;;4.17;2.10;;;14.50;99.90;;;15.36;100.00;97751.66;5042035;28;21282;-80
2023/09/20 04:40:49;;;;;;;4.30;1.73;;;14.50;99.90;;;15.38;100.00;97738.22;5044878;28;20477;-80
2023/09/20 04:43:19;;;;;;;3.40;1.80;;;14.50;99.90;;;15.38;100.00;97741.66;5044897;28;20465;-81
2023/09/20 04:45:49;;;;;;;10.13;2.00;;;14.40;99.90;;;15.40;100.00;97750.16;5043949;28;21070;-81
2023/09/20 04:48:20;;;;;;;4.13;1.60;;;14.40;99.90;;;15.38;100.00;97738.22;5044611;28;20552;-81
2023/09/20 04:50:51;;;;;;;3.37;1.90;;;14.40;99.90;;;15.32;100.00;97737.31;5043030;28;20557;-81
2023/09/20 04:53:21;;;;;;;1.70;1.57;;;14.40;99.90;;;15.32;100.00;97737.31;5047231;28;20480;-81
2023/09/20 04:55:52;;;;;;;3.37;1.57;;;14.40;99.90;;;15.32;100.00;97739.13;5045761;28;20560;-80
2023/09/20 04:58:21;;;;;;;4.33;2.10;;;14.40;99.90;;;15.32;100.00;97744.41;5047789;28;20467;-82
2023/09/20 05:00:50;;;;;;;5.03;1.80;;;14.40;99.90;;;15.34;100.00;97740.50;5045241;28;20460;-81
2023/09/20 05:03:22;;;;;;;3.53;2.03;;;14.40;99.90;;;15.29;100.00;97735.13;5044473;28;20466;-81
2023/09/20 05:05:53;;;;;;;4.13;1.97;;;14.40;99.90;;;15.30;100.00;97738.56;5045434;28;20481;-81
2023/09/20 05:08:23;;;;;;;2.87;1.60;;;14.30;99.90;;;15.29;100.00;97737.75;5046202;28;20492;-81
2023/09/20 05:10:55;;;;;;;2.23;1.93;;;14.30;99.90;;;15.30;100.00;97735.94;5041393;28;20457;-81
2023/09/20 05:13:24;;;;;;;4.37;2.00;;;14.30;99.90;;;15.31;100.00;97745.41;5043158;28;20445;-81
2023/09/20 05:15:55;;;;;;;4.20;2.10;;;14.30;99.90;;;15.27;100.00;97736.38;5047013;28;20489;-81
2023/09/20 05:18:28;;;;;;;4.03;1.60;;;14.40;99.90;;;15.24;100.00;97753.41;5042809;28;21046;-81
2023/09/20 05:21:01;;;;;;;10.13;1.80;;;14.40;99.90;;;15.24;100.00;97758.69;5044536;28;20473;-81
2023/09/20 05:23:31;;;;;;;5.20;1.77;;;14.40;99.90;;;15.28;100.00;97762.50;5044364;28;20580;-80
2023/09/20 05:26:04;;;;;;;4.87;1.90;;;14.30;99.90;;;15.27;100.00;97747.69;5043681;28;20512;-81
2023/09/20 05:28:35;;;;;;;6.40;2.10;;;14.30;99.90;;;15.29;100.00;97756.19;5045574;28;20798;-81
2023/09/20 05:31:05;;;;;;;3.40;2.40;;;14.30;99.90;;;15.27;100.00;97758.25;5040860;28;20890;-80
2023/09/20 05:33:35;;;;;;;19.90;8.33;;;14.30;99.90;;;15.27;100.00;97755.59;5040107;28;20466;-80
2023/09/20 05:36:07;;;;;;;3.30;1.90;;;14.30;99.90;;;15.29;100.00;97758.03;5040221;28;20461;-80
2023/09/20 05:38:37;;;;;;;2.27;1.80;;;14.30;99.90;;;15.29;100.00;97755.38;5041159;28;21195;-81
2023/09/20 05:41:10;;;;;;;4.00;1.80;;;14.30;99.90;;;15.30;100.00;97757.81;5044743;28;20488;-80
2023/09/20 05:43:42;;;;;;;4.67;2.03;;;14.30;99.90;;;15.29;100.00;97755.38;5043250;28;20465;-80
2023/09/20 05:46:13;;;;;;;3.73;2.00;;;14.30;99.90;;;15.27;100.00;97762.72;5044493;28;20508;-80
2023/09/20 05:48:44;;;;;;;8.87;1.97;;;14.30;99.90;;;15.31;100.00;97755.97;5042329;28;20807;-80
2023/09/20 05:51:18;;;;;;;2.80;1.80;;;14.30;99.90;;;15.31;100.00;97758.59;5044262;28;20539;-81
2023/09/20 05:53:49;;;;;;;4.60;2.10;;;14.30;99.90;;;15.31;100.00;97764.66;5047270;28;20463;-80
2023/09/20 05:56:24;;;;;;;4.17;1.97;;;14.30;99.90;;;15.31;100.00;97764.66;5050644;28;21046;-80
2023/09/20 05:58:53;;;;;;;4.00;1.97;;;14.40;99.90;;;15.31;100.00;97775.22;5046346;28;20470;-80
2023/09/20 06:01:24;;;;;;;7.43;2.00;;;14.40;99.90;;;15.32;100.00;97766.28;5045775;28;21056;-80
2023/09/20 06:03:56;;;;;;;9.53;2.10;;;14.50;99.90;;;15.36;100.00;97767.44;5045087;28;20468;-79
2023/09/20 06:06:26;;;;;;;2.00;1.80;;;14.50;99.90;;;15.32;100.00;97768.91;5047510;28;20524;-80
2023/09/20 06:08:55;;;;;;;5.40;2.37;;;14.50;99.90;;;15.38;100.00;97773.28;5044575;28;20456;-81
2023/09/20 06:11:27;;;;;;;6.63;3.17;;;14.50;99.90;;;15.40;100.00;97779.16;5048737;28;20541;-81
2023/09/20 06:13:58;;;;;;;2.97;1.90;;;14.50;99.90;;;15.42;100.00;97777.09;5044704;28;20456;-81
2023/09/20 06:16:31;;;;;;;2.30;1.80;;;14.60;99.90;;;15.48;100.00;97770.94;5046082;28;20473;-80
2023/09/20 06:19:01;;;;;;;3.90;1.73;;;14.60;99.90;;;15.50;100.00;97766.28;5045777;28;20483;-81
2023/09/20 06:21:38;;;;;;;5.93;2.37;;;14.60;99.90;;;15.52;100.00;97760.75;5044567;28;20484;-80
2023/09/20 06:24:11;;;;;;;5.37;2.90;;;14.70;99.90;;;15.57;100.00;97766.97;5045797;28;20495;-79
2023/09/20 06:26:43;;;;;;;6.70;2.40;;;14.70;99.90;;;15.62;100.00;97757.59;5046586;28;20585;-79
2023/09/20 06:29:14;;;;;;;6.20;1.77;;;14.70;99.90;;;15.67;100.00;97755.06;5044438;28;20476;-79
2023/09/20 06:31:45;;;;;;;8.43;2.37;;;14.80;99.90;;;15.72;100.00;97755.22;5045323;28;20540;-79
2023/09/20 06:34:18;;;;;;;3.20;1.83;;;14.80;99.90;;;15.75;100.00;97749.47;5048702;28;20461;-79
2023/09/20 06:36:48;;;;;;;3.83;2.00;;;14.80;99.90;;;15.80;100.00;97754.84;5047237;28;20950;-81
2023/09/20 06:39:19;;;;;;;9.03;2.17;;;14.90;99.90;;;15.81;100.00;97749.38;5047042;28;20490;-81
2023/09/20 06:41:51;;;;;;;3.27;1.90;;;15.00;99.90;;;15.84;100.00;97753.38;5043746;28;20808;-80
2023/09/20 06:44:21;;;;;;;3.67;2.00;;;15.00;99.90;;;15.85;100.00;97755.00;5043708;28;20470;-80
2023/09/20 06:46:52;;;;;;;4.10;2.20;;;14.90;99.90;;;15.87;100.00;97745.81;5046225;28;20589;-80
2023/09/20 06:49:22;;;;;;;4.63;2.10;;;14.90;99.90;;;15.92;100.00;97755.69;5038957;28;20465;-82
2023/09/20 06:51:53;;;;;;;2.70;1.87;;;15.00;99.90;;;15.94;100.00;97761.53;5045102;28;20465;-81
2023/09/20 06:54:23;;;;;;;8.57;2.20;;;15.00;99.90;;;15.97;100.00;97759.25;5041141;28;20469;-79
2023/09/20 06:56:57;;;;;;;3.67;2.23;;;15.00;99.90;;;15.99;100.00;97745.84;5041484;28;20465;-79
2023/09/20 06:59:28;;;;;;;9.53;2.40;;;15.10;99.90;;;16.05;100.00;97750.19;5042916;28;20457;-81
2023/09/20 07:01:57;;;;;;;3.87;2.10;;;15.10;99.90;;;16.09;100.00;97740.78;5043352;28;20815;-80
2023/09/20 07:04:27;;;;;;;3.37;2.20;;;15.20;99.90;;;16.11;100.00;97749.25;5043951;28;20549;-80
2023/09/20 07:11:40;;;;;;;9.90;5.30;;;15.20;99.90;;;16.20;100.00;97753.19;5002408;28;20522;-80
2023/09/20 07:14:15;;;;;;;3.13;1.87;;;15.20;99.90;;;16.24;100.00;97742.97;4997954;28;20850;-80
2023/09/20 07:16:52;;;;;;;6.33;2.50;;;15.30;99.90;;;16.27;100.00;97748.59;5044754;28;20464;-80
2023/09/20 07:19:23;;;;;;;3.30;2.03;;;15.30;99.90;;;16.31;100.00;97748.94;5086156;28;20456;-80
2023/09/20 07:21:53;;;;;;;6.20;2.17;;;15.40;99.90;;;16.34;100.00;97749.28;5083923;28;20471;-80
2023/09/20 07:24:24;;;;;;;3.60;1.90;;;15.40;99.90;;;16.39;100.00;97751.22;5080871;28;20460;-79
2023/09/20 07:26:58;;;;;;;2.00;1.80;;;15.50;99.90;;;16.43;100.00;97742.59;5084162;28;20527;-80
2023/09/20 07:29:30;;;;;;;3.40;1.83;;;15.50;99.90;;;16.47;100.00;97737.66;5082798;28;20466;-79
2023/09/20 07:32:01;;;;;;;3.37;1.70;;;15.60;99.90;;;16.49;100.00;97736.38;5082975;28;20487;-80
2023/09/20 07:34:36;;;;;;;2.60;1.80;;;15.70;99.90;;;16.52;100.00;97741.19;5082078;28;20462;-80
2023/09/20 07:37:07;;;;;;;4.70;1.70;;;15.70;99.90;;;16.58;100.00;97742.16;5079193;28;20466;-80
2023/09/20 07:39:37;;;;;;;4.03;1.60;;;15.70;99.90;;;16.63;100.00;97746.72;5082855;28;20541;-79
2023/09/20 07:42:07;;;;;;;5.80;2.07;;;15.80;99.90;;;16.70;100.00;97742.13;5085549;28;20454;-80
2023/09/20 07:44:39;;;;;;;4.03;1.97;;;15.90;99.90;;;16.75;100.00;97739.59;5084000;28;21186;-81
2023/09/20 07:47:11;;;;;;;5.63;1.80;;;16.00;99.90;;;16.83;100.00;97747.16;5084778;28;20490;-80
2023/09/20 07:49:40;;;;;;;4.00;1.40;;;16.00;99.90;;;16.90;100.00;97739.91;5081858;28;20866;-79
2023/09/20 07:52:09;;;;;;;2.07;1.70;;;16.10;99.90;;;16.95;100.00;97740.00;5079771;28;20478;-80
2023/09/20 07:54:40;;;;;;;2.60;1.93;;;16.20;99.90;;;17.01;100.00;97734.56;5083172;28;20471;-80
2023/09/20 07:57:10;;;;;;;1.73;1.30;;;16.30;99.90;;;17.07;100.00;97723.06;5085190;28;20459;-80
2023/09/20 07:59:42;;;;;;;5.10;1.90;;;16.30;99.90;;;17.15;100.00;97713.94;5084547;28;20455;-80
2023/09/20 08:02:15;;;;;;;3.23;1.50;;;16.40;99.90;;;17.23;100.00;97726.78;5084657;28;20560;-81
2023/09/20 08:04:45;;;;;;;3.00;1.90;;;16.50;99.90;;;17.33;100.00;97726.97;5083733;28;20470;-81
2023/09/20 08:07:15;;;;;;;4.10;1.60;;;16.70;99.90;;;17.40;100.00;97722.31;5076883;28;20499;-81
2023/09/20 08:09:45;;;;;;;5.63;1.57;;;16.60;99.90;;;17.48;100.00;97724.59;5084879;28;20474;-80
2023/09/20 08:12:16;;;;;;;3.03;1.40;;;16.80;99.90;;;17.54;100.00;97718.34;5080571;28;20467;-81
2023/09/20 08:14:48;;;;;;;2.93;1.43;;;16.80;99.90;;;17.63;100.00;97715.34;5083033;28;20977;-80
2023/09/20 08:20:10;;;;;;;4.87;2.03;;;17.00;99.90;;;17.77;100.00;97711.34;5069650;28;20476;-80
2023/09/20 09:01:51;;;;;;;2.93;1.57;;;18.00;99.90;;;18.72;100.00;97701.28;5086782;28;20525;-80
2023/09/20 09:04:24;;;;;;;2.40;1.30;;;18.10;99.90;;;18.79;100.00;97714.34;5087018;28;20542;-80
2023/09/20 09:06:55;;;;;;;2.80;1.30;;;18.10;99.90;;;18.84;100.00;97709.13;5086712;28;20573;-80
2023/09/20 09:09:24;;;;;;;4.00;1.50;;;18.10;99.90;;;18.88;100.00;97705.69;5084612;28;20548;-80
2023/09/20 09:11:58;;;;;;;2.83;1.50;;;18.20;99.90;;;18.94;100.00;97701.28;5084608;28;20892;-78
2023/09/20 09:14:30;;;;;;;3.23;1.97;;;18.30;99.90;;;19.00;100.00;97710.88;5082907;28;20992;-80
2023/09/20 09:17:04;;;;;;;3.97;1.80;;;18.30;99.90;;;19.04;100.00;97709.34;5079285;28;20466;-80
2023/09/20 09:19:37;;;;;;;7.77;1.70;;;18.30;99.90;;;19.11;100.00;97696.69;5079377;28;20478;-81
2023/09/20 09:22:07;;;;;;;1.23;1.07;;;18.40;99.90;;;19.18;100.00;97697.28;5086251;28;20462;-80
2023/09/20 09:24:45;;;;;;;4.03;1.60;;;18.50;99.90;;;19.25;100.00;97691.78;5091163;28;20474;-80
2023/09/20 09:27:17;;;;;;;3.67;1.60;;;18.60;99.90;;;19.30;100.00;97697.91;5088267;28;20494;-80
2023/09/20 09:29:48;;;;;;;3.77;1.70;;;18.60;99.90;;;19.37;100.00;97692.41;5090888;28;20461;-79
2023/09/20 09:32:19;;;;;;;2.73;1.50;;;18.80;99.90;;;19.45;100.00;97698.09;5091086;28;20532;-80
2023/09/20 09:34:50;;;;;;;3.50;1.63;;;18.80;99.90;;;19.51;100.00;97689.13;5092000;28;20451;-79
2023/09/20 09:37:20;;;;;;;6.20;1.80;;;18.90;99.90;;;19.61;100.00;97687.63;5088285;28;20462;-80
2023/09/20 09:40:00;;;;;;;6.50;1.60;;;18.90;99.90;;;19.66;100.00;97687.66;5092111;28;20474;-80
2023/09/20 09:42:31;;;;;;;2.03;1.33;;;19.10;99.90;;;19.72;100.00;97691.94;5089001;28;20540;-80
2023/09/20 09:45:02;;;;;;;4.77;1.60;;;19.00;99.90;;;19.78;100.00;97681.13;5081885;28;20460;-80
2023/09/20 09:47:35;;;;;;;3.10;1.30;;;19.10;99.90;;;19.84;100.00;97681.97;5087592;28;20482;-80
2023/09/20 09:50:09;;;;;;;3.17;1.60;;;19.30;99.90;;;19.93;100.00;97691.03;5088789;28;20473;-81
2023/09/20 09:52:41;;;;;;;2.90;1.27;;;19.30;99.90;;;19.97;100.00;97684.16;5086706;28;20467;-80
2023/09/20 09:55:14;;;;;;;4.10;1.83;;;19.40;99.90;;;20.02;100.00;97686.88;5085878;28;21032;-80
2023/09/20 09:57:44;;;;;;;2.60;1.53;;;19.40;99.90;;;20.08;100.00;97675.22;5083304;28;20580;-79
2023/09/20 10:00:20;;;;;;;3.20;1.57;;;19.50;99.90;;;20.14;100.00;97679.47;5088381;28;20462;-80
2023/09/20 10:02:53;;;;;;;2.80;1.37;;;19.60;99.90;;;20.18;100.00;97679.78;5082085;28;20958;-80
2023/09/20 10:05:26;;;;;;;2.13;1.53;;;19.50;99.90;;;20.23;100.00;97677.97;5087148;28;20459;-79
2023/09/20 10:08:01;;;;;;;3.20;1.67;;;19.50;99.90;;;20.29;100.00;97671.66;5081664;28;21030;-79
2023/09/20 10:10:30;;;;;;;5.07;1.87;;;19.70;99.90;;;20.31;100.00;97677.47;5086807;28;20988;-79
2023/09/20 10:13:03;;;;;;;14.33;8.43;;;19.60;99.90;;;20.38;100.00;97675.41;5083789;28;20593;-80
2023/09/20 10:15:35;;;;;;;8.67;4.90;;;19.70;99.90;;;20.44;100.00;97677.00;5087530;28;20460;-79
2023/09/20 10:18:06;;;;;;;3.70;1.60;;;19.80;99.90;;;20.46;100.00;97677.56;5087834;28;21408;-78
2023/09/20 10:21:06;;;;;;;3.37;1.67;;;19.80;99.90;;;20.48;100.00;97680.75;5089233;28;20499;-79
2023/09/20 10:23:37;;;;;;;4.10;1.60;;;19.80;99.90;;;20.46;100.00;97677.56;5087729;28;20477;-78
2023/09/20 10:26:15;;;;;;;4.03;1.63;;;19.80;99.90;;;20.43;100.00;97683.41;5085149;28;20557;-78
2023/09/20 10:28:47;;;;;;;3.40;1.47;;;19.70;99.90;;;20.45;100.00;97675.97;5083979;28;20558;-79
2023/09/20 10:31:18;;;;;;;3.70;2.07;;;19.80;99.90;;;20.48;100.00;97680.75;5083963;28;20458;-79
2023/09/20 10:33:54;;;;;;;3.20;1.60;;;19.80;99.90;;;20.49;100.00;97678.91;5088758;28;20542;-79
2023/09/20 10:36:30;;;;;;;4.13;1.60;;;19.90;99.90;;;20.51;100.00;97679.47;5087731;28;20486;-79
2023/09/20 10:39:23;;;;;;;2.10;1.40;;;19.90;99.90;;;20.54;100.00;97671.75;5088536;28;21008;-79
2023/09/20 10:41:55;;;;;;;2.90;1.33;;;19.80;99.90;;;20.52;100.00;97676.53;5086505;28;20462;-79
2023/09/20 10:44:35;;;;;;;3.00;1.50;;;19.90;99.90;;;20.55;100.00;97680.50;5088999;28;20509;-79
2023/09/20 10:47:09;;;;;;;3.90;1.87;;;19.90;99.90;;;20.52;100.00;97687.16;5084585;28;20468;-79
2023/09/20 10:49:47;;;;;;;17.90;1.70;;;19.80;99.90;;;20.52;100.00;97681.84;5085875;28;20975;-79
2023/09/20 10:52:57;;;;;;;15.47;8.17;;;19.80;99.90;;;20.55;100.00;97680.50;5084640;28;20968;-80
2023/09/20 10:55:38;;;;;;;6.80;1.50;;;19.90;99.90;;;20.64;100.00;97678.16;5084278;28;20447;-79
2023/09/20 10:58:08;;;;;;;3.23;1.50;;;20.00;99.90;;;20.67;100.00;97678.44;5089836;28;20477;-80
2023/09/20 11:00:39;;;;;;;8.47;1.70;;;20.10;99.90;;;20.70;100.00;97667.28;5084138;28;20466;-79
2023/09/20 11:03:12;;;;;;;7.33;2.70;;;20.00;99.90;;;20.74;100.00;97664.91;5083367;28;20455;-81
2023/09/20 11:05:42;;;;;;;3.87;1.87;;;20.10;99.90;;;20.77;100.00;97659.06;5085771;28;20546;-79
2023/09/20 11:08:15;;;;;;;4.03;1.60;;;20.10;99.90;;;20.81;100.00;97652.19;5085564;28;20534;-79
2023/09/20 11:10:46;;;;;;;7.37;1.70;;;20.00;99.90;;;20.84;100.00;97651.66;5083907;28;20464;-79
2023/09/20 11:13:19;;;;;;;4.57;1.67;;;20.10;99.90;;;20.87;100.00;97651.13;5085711;28;20962;-79
2023/09/20 11:15:50;;;;;;;4.83;1.60;;;20.20;99.90;;;20.85;100.00;97646.09;5085807;28;20891;-79
2023/09/20 11:18:21;;;;;;;2.70;1.47;;;20.10;99.90;;;20.87;100.00;97645.81;5084808;28;20467;-79